createdAt,value
2022-10-16T00:27:17.763Z,18.25
2022-10-16T00:27:30.843Z,18.22
2022-10-16T00:27:44.044Z,18.29
2022-10-16T00:27:56.847Z,18.29
2022-10-16T00:28:10.127Z,18.34
2022-10-16T00:28:23.222Z,18.33
2022-10-16T00:28:36.221Z,18.24
2022-10-16T00:28:50.123Z,18.25
2022-10-16T00:29:04.137Z,18.24
2022-10-16T00:29:17.025Z,18.29
2022-10-16T00:29:30.182Z,18.31
2022-10-16T00:29:44.099Z,18.30
2022-10-16T00:29:56.962Z,18.32
2022-10-16T00:30:10.464Z,18.29
2022-10-16T00:30:27.796Z,18.22
2022-10-16T00:30:41.017Z,18.27
2022-10-16T00:30:53.911Z,18.35
2022-10-16T00:31:26.729Z,18.31
2022-10-16T00:31:39.539Z,18.21
2022-10-16T00:31:52.500Z,18.28
2022-10-16T00:32:05.603Z,18.30
2022-10-16T00:32:19.434Z,18.36
2022-10-16T00:32:52.162Z,18.38
2022-10-16T00:33:05.977Z,18.45
2022-10-16T00:33:19.095Z,18.43
2022-10-16T00:33:31.899Z,18.45
2022-10-16T00:33:44.736Z,18.44
2022-10-16T00:33:57.616Z,18.44
2022-10-16T00:34:10.807Z,18.41
2022-10-16T00:34:23.695Z,18.45
2022-10-16T00:34:36.517Z,18.47
2022-10-16T00:34:49.787Z,18.41
2022-10-16T00:35:04.206Z,18.40
2022-10-16T00:35:17.130Z,18.40
2022-10-16T00:35:30.345Z,18.39
2022-10-16T00:35:43.643Z,18.43
2022-10-16T00:35:59.516Z,18.41
2022-10-16T00:36:15.830Z,18.30
2022-10-16T00:36:29.334Z,18.23
2022-10-16T00:36:42.145Z,18.30
2022-10-16T00:36:55.162Z,18.30
2022-10-16T00:37:09.901Z,18.32
2022-10-16T00:37:22.764Z,18.35
2022-10-16T00:37:35.559Z,18.34
2022-10-16T00:37:48.380Z,18.33
2022-10-16T00:38:01.213Z,18.35
2022-10-16T00:38:14.402Z,18.34
2022-10-16T00:38:27.305Z,18.37
2022-10-16T00:38:41.169Z,18.38
2022-10-16T00:38:55.761Z,18.27
2022-10-16T00:39:13.145Z,18.16
2022-10-16T00:39:26.885Z,18.19
2022-10-16T00:39:39.686Z,18.21
2022-10-16T00:39:52.517Z,18.25
2022-10-16T00:40:06.264Z,18.29
2022-10-16T00:40:19.185Z,18.33
2022-10-16T00:40:32.211Z,18.34
2022-10-16T00:40:45.128Z,18.34
2022-10-16T00:40:57.943Z,18.38
2022-10-16T00:41:19.874Z,18.37
2022-10-16T00:41:32.819Z,18.36
2022-10-16T00:41:47.824Z,18.38
2022-10-16T00:42:00.604Z,18.40
2022-10-16T00:42:17.208Z,18.42
2022-10-16T00:42:30.056Z,18.45
2022-10-16T00:42:42.911Z,18.42
2022-10-16T00:42:56.097Z,18.31
2022-10-16T00:43:38.315Z,18.35
2022-10-16T00:43:55.870Z,18.33
2022-10-16T00:44:43.966Z,18.31
2022-10-16T00:44:59.002Z,18.26
2022-10-16T00:45:11.817Z,18.29
2022-10-16T00:45:24.713Z,18.32
2022-10-16T00:45:37.854Z,18.28
2022-10-16T00:46:23.061Z,18.28
2022-10-16T00:46:41.173Z,18.27
2022-10-16T00:46:54.452Z,18.29
2022-10-16T00:47:22.466Z,18.32
2022-10-16T00:47:50.082Z,18.35
2022-10-16T00:48:21.224Z,18.38
2022-10-16T00:48:34.207Z,18.38
2022-10-16T00:48:51.702Z,18.33
2022-10-16T00:49:17.213Z,18.33
2022-10-16T00:49:30.529Z,18.31
2022-10-16T00:49:44.485Z,18.27
2022-10-16T00:50:03.950Z,18.27
2022-10-16T00:50:33.094Z,18.29
2022-10-16T00:50:45.902Z,18.30
2022-10-16T00:50:59.207Z,18.26
2022-10-16T00:51:12.001Z,18.26
2022-10-16T00:51:27.409Z,18.32
2022-10-16T00:51:43.899Z,18.32
2022-10-16T00:51:56.901Z,18.33
2022-10-16T00:52:09.725Z,18.34
2022-10-16T00:52:22.835Z,18.29
2022-10-16T00:52:36.035Z,18.29
2022-10-16T00:52:49.526Z,18.23
2022-10-16T00:53:02.586Z,18.27
2022-10-16T00:53:15.596Z,18.30
2022-10-16T00:53:29.646Z,18.29
2022-10-16T00:53:43.480Z,18.32
2022-10-16T00:53:56.700Z,18.30
2022-10-16T00:54:17.381Z,18.30
2022-10-16T00:54:31.687Z,18.28
2022-10-16T00:54:44.495Z,18.27
2022-10-16T00:54:59.650Z,18.29
2022-10-16T00:55:13.443Z,18.30
2022-10-16T00:55:26.556Z,18.29
2022-10-16T00:55:42.393Z,18.28
2022-10-16T00:55:56.604Z,18.27
2022-10-16T00:56:09.488Z,18.25
2022-10-16T00:56:22.491Z,18.25
2022-10-16T00:56:35.808Z,18.24
2022-10-16T00:56:48.672Z,18.23
2022-10-16T00:57:03.693Z,18.24
2022-10-16T00:57:16.565Z,18.27
2022-10-16T00:57:49.413Z,18.30
2022-10-16T00:58:02.283Z,18.16
2022-10-16T00:58:15.353Z,18.18
2022-10-16T00:58:28.635Z,18.17
2022-10-16T00:59:06.056Z,18.14
2022-10-16T00:59:28.086Z,18.24
2022-10-16T00:59:41.538Z,18.28
2022-10-16T01:00:06.278Z,18.28
2022-10-16T01:00:21.619Z,18.27
2022-10-16T01:00:34.457Z,18.29
2022-10-16T01:00:47.757Z,18.31
2022-10-16T01:01:00.733Z,18.32
2022-10-16T01:01:13.683Z,18.31
2022-10-16T01:01:26.571Z,18.30
2022-10-16T01:01:39.958Z,18.25
2022-10-16T01:01:53.551Z,18.26
2022-10-16T01:02:07.597Z,18.29
2022-10-16T01:02:20.953Z,18.29
2022-10-16T01:02:33.744Z,18.27
2022-10-16T01:02:53.992Z,18.25
2022-10-16T01:03:50.801Z,18.24
2022-10-16T01:04:04.723Z,18.20
2022-10-16T01:04:17.988Z,18.19
2022-10-16T01:04:34.142Z,18.20
2022-10-16T01:04:49.714Z,18.18
2022-10-16T01:05:03.031Z,18.18
2022-10-16T01:05:16.044Z,18.20
2022-10-16T01:05:39.249Z,18.21
2022-10-16T01:06:58.888Z,18.17
2022-10-16T01:07:17.875Z,18.14
2022-10-16T01:07:50.736Z,18.11
2022-10-16T01:08:10.669Z,18.12
2022-10-16T01:26:21.829Z,18.25
2022-10-16T01:26:59.901Z,18.25
2022-10-16T01:27:32.644Z,17.85
2022-10-16T01:27:45.468Z,17.87
2022-10-16T01:28:00.418Z,17.85
2022-10-16T01:28:13.269Z,17.86
2022-10-16T01:28:31.745Z,17.83
2022-10-16T01:29:07.400Z,17.84
2022-10-16T01:29:22.151Z,17.82
2022-10-16T01:29:51.401Z,17.83
2022-10-16T01:30:25.674Z,17.85
2022-10-16T01:30:38.980Z,17.83
2022-10-16T01:30:52.756Z,17.84
2022-10-16T01:31:05.575Z,17.84
2022-10-16T01:31:19.904Z,17.84
2022-10-16T01:31:34.993Z,17.85
2022-10-16T01:31:51.028Z,17.84
2022-10-16T01:32:10.896Z,17.83
2022-10-16T01:32:46.964Z,17.82
2022-10-16T01:33:20.588Z,17.82
2022-10-16T01:33:44.762Z,17.88
2022-10-16T01:34:30.553Z,17.89
2022-10-16T01:34:53.914Z,17.89
2022-10-16T01:35:12.592Z,17.88
2022-10-16T01:35:33.002Z,17.87
2022-10-16T01:35:49.119Z,17.89
2022-10-16T01:36:06.904Z,17.89
2022-10-16T01:36:22.547Z,17.90
2022-10-16T01:36:40.875Z,17.94
2022-10-16T01:36:56.689Z,17.91
2022-10-16T01:37:12.991Z,17.90
2022-10-16T01:37:51.008Z,17.89
2022-10-16T01:38:12.649Z,17.86
2022-10-16T01:38:36.583Z,17.83
2022-10-16T01:38:50.989Z,17.79
2022-10-16T01:39:04.344Z,17.79
2022-10-16T01:39:17.276Z,17.81
2022-10-16T01:39:31.755Z,17.83
2022-10-16T01:39:46.704Z,17.81
2022-10-16T01:40:00.511Z,17.76
2022-10-16T01:40:14.245Z,17.77
2022-10-16T01:40:28.391Z,17.78
2022-10-16T01:40:42.926Z,17.78
2022-10-16T01:40:59.582Z,17.77
2022-10-16T01:41:25.860Z,17.75
2022-10-16T01:41:42.664Z,17.72
2022-10-16T01:41:58.567Z,17.72
2022-10-16T01:42:16.372Z,17.70
2022-10-16T01:42:55.078Z,17.63
2022-10-16T01:43:16.978Z,17.56
2022-10-16T01:43:40.339Z,17.60
2022-10-16T01:44:05.636Z,17.62
2022-10-16T01:44:21.079Z,17.53
2022-10-16T01:44:34.477Z,17.55
2022-10-16T01:44:47.408Z,17.56
2022-10-16T01:45:00.436Z,17.50
2022-10-16T01:45:14.710Z,17.53
2022-10-16T01:46:10.394Z,17.54
2022-10-16T01:46:24.204Z,17.54
2022-10-16T01:46:38.117Z,17.56
2022-10-16T01:46:51.676Z,17.54
2022-10-16T01:47:04.828Z,17.48
2022-10-16T01:47:18.279Z,17.46
2022-10-16T01:47:31.139Z,17.51
2022-10-16T01:47:44.796Z,17.48
2022-10-16T01:47:57.679Z,17.44
2022-10-16T01:48:31.371Z,17.49
2022-10-16T01:48:44.674Z,17.51
2022-10-16T01:48:57.495Z,17.52
2022-10-16T01:49:10.361Z,17.51
2022-10-16T01:49:28.841Z,17.51
2022-10-16T01:49:41.801Z,17.51
2022-10-16T01:49:54.601Z,17.52
2022-10-16T01:50:07.776Z,17.49
2022-10-16T01:50:22.791Z,17.48
2022-10-16T01:50:38.604Z,17.48
2022-10-16T01:51:06.104Z,17.42
2022-10-16T01:51:19.023Z,17.46
2022-10-16T01:51:32.166Z,17.49
2022-10-16T01:51:46.524Z,17.52
2022-10-16T01:52:16.696Z,17.46
2022-10-16T01:52:29.691Z,17.41
2022-10-16T01:52:44.638Z,17.40
2022-10-16T01:52:58.144Z,17.42
2022-10-16T01:53:12.081Z,17.42
2022-10-16T02:33:26.941Z,16.92
2022-10-16T02:33:41.346Z,16.86
2022-10-16T02:33:54.372Z,16.77
2022-10-16T02:34:07.242Z,16.73
2022-10-16T02:34:20.213Z,16.73
2022-10-16T02:34:33.542Z,16.70
2022-10-16T02:34:46.959Z,16.67
2022-10-16T02:35:00.718Z,16.65
2022-10-16T02:35:13.972Z,16.64
2022-10-16T02:35:28.151Z,16.64
2022-10-16T02:36:02.472Z,16.64
2022-10-16T02:36:16.345Z,16.59
2022-10-16T02:36:29.585Z,16.63
2022-10-16T02:36:42.936Z,16.62
2022-10-16T02:36:59.976Z,16.65
2022-10-16T02:37:12.966Z,16.69
2022-10-16T02:37:26.808Z,16.64
2022-10-16T02:37:39.674Z,16.66
2022-10-16T02:37:53.134Z,16.64
2022-10-16T02:38:06.569Z,16.67
2022-10-16T02:38:19.668Z,16.67
2022-10-16T03:04:24.855Z,16.51
2022-10-16T03:04:38.185Z,16.47
2022-10-16T03:04:51.176Z,16.51
2022-10-16T03:05:04.312Z,16.49
2022-10-16T03:05:17.372Z,16.46
2022-10-16T03:05:30.303Z,16.34
2022-10-16T03:05:46.713Z,16.28
2022-10-16T03:05:59.533Z,16.25
2022-10-16T03:06:12.779Z,16.25
2022-10-16T03:06:25.675Z,16.30
2022-10-16T03:06:38.528Z,16.20
2022-10-16T03:06:51.417Z,16.15
2022-10-16T03:07:04.511Z,16.15
2022-10-16T03:07:17.429Z,16.11
2022-10-16T03:07:30.442Z,16.08
2022-10-16T03:07:43.431Z,16.12
2022-10-16T03:07:56.646Z,16.08
2022-10-16T03:08:09.493Z,16.10
2022-10-16T03:08:24.637Z,16.08
2022-10-16T03:08:37.623Z,16.11
2022-10-16T03:08:50.911Z,16.14
2022-10-16T03:09:03.796Z,16.12
2022-10-16T03:09:17.163Z,16.18
2022-10-16T03:09:31.204Z,16.18
2022-10-16T03:09:44.014Z,16.26
2022-10-16T03:09:56.901Z,16.32
2022-10-16T03:10:13.672Z,16.34
2022-10-16T03:10:26.526Z,16.27
2022-10-16T03:10:39.344Z,16.27
2022-10-16T03:10:52.452Z,16.28
2022-10-16T03:11:05.288Z,16.30
2022-10-16T03:11:18.103Z,16.32
2022-10-16T03:11:51.573Z,16.35
2022-10-16T03:12:04.557Z,16.41
2022-10-16T03:12:17.496Z,16.39
2022-10-16T03:12:36.163Z,16.38
2022-10-16T03:12:48.935Z,16.40
2022-10-16T03:13:01.730Z,16.39
2022-10-16T03:13:14.940Z,16.36
2022-10-16T03:13:27.910Z,16.33
2022-10-16T03:13:41.203Z,16.38
2022-10-16T03:13:54.424Z,16.38
2022-10-16T03:14:07.450Z,16.40
2022-10-16T03:14:20.540Z,16.41
2022-10-16T03:14:33.781Z,16.44
2022-10-16T03:14:46.664Z,16.47
2022-10-16T03:15:00.040Z,16.51
2022-10-16T03:15:33.379Z,16.53
2022-10-16T03:15:46.247Z,16.55
2022-10-16T03:15:59.035Z,16.56
2022-10-16T03:16:11.900Z,16.53
2022-10-16T03:16:25.621Z,16.49
2022-10-16T03:16:38.432Z,16.46
2022-10-16T03:16:51.635Z,16.44
2022-10-16T03:17:04.460Z,16.48
2022-10-16T03:17:17.900Z,16.45
2022-10-16T03:17:30.744Z,16.42
2022-10-16T03:17:44.200Z,16.44
2022-10-16T03:18:00.558Z,16.45
2022-10-16T03:18:13.855Z,16.47
2022-10-16T03:18:26.745Z,16.41
2022-10-16T03:18:39.664Z,16.47
2022-10-16T03:18:52.516Z,16.44
2022-10-16T03:19:05.422Z,16.45
2022-10-16T03:19:18.652Z,16.47
2022-10-16T03:19:36.842Z,16.46
2022-10-16T03:19:49.656Z,16.47
2022-10-16T03:20:05.105Z,16.45
2022-10-16T03:20:17.944Z,16.50
2022-10-16T03:20:31.234Z,16.45
2022-10-16T03:21:04.936Z,16.43
2022-10-16T03:21:17.846Z,16.49
2022-10-16T03:21:30.728Z,16.52
2022-10-16T03:21:43.567Z,16.52
2022-10-16T03:22:14.912Z,16.53
2022-10-16T03:22:47.640Z,16.51
2022-10-16T03:23:03.581Z,16.49
2022-10-16T03:23:16.465Z,16.45
2022-10-16T03:24:04.791Z,16.50
2022-10-16T03:24:18.240Z,16.42
2022-10-16T03:24:50.981Z,16.44
2022-10-16T03:25:05.146Z,16.44
2022-10-16T03:25:17.954Z,16.44
2022-10-16T03:25:30.798Z,16.47
2022-10-16T03:25:44.097Z,16.49
2022-10-16T03:25:57.174Z,16.53
2022-10-16T03:26:10.091Z,16.48
2022-10-16T03:26:23.379Z,16.49
2022-10-16T03:26:36.207Z,16.53
2022-10-16T03:26:49.017Z,16.50
2022-10-16T03:27:02.344Z,16.49
2022-10-16T03:27:58.638Z,16.50
2022-10-16T03:28:11.666Z,16.48
2022-10-16T03:28:24.881Z,16.44
2022-10-16T03:28:38.571Z,16.42
2022-10-16T04:07:28.438Z,15.70
2022-10-16T04:07:41.508Z,15.74
2022-10-16T04:07:54.927Z,15.68
2022-10-16T04:08:07.938Z,15.68
2022-10-16T04:08:20.968Z,15.68
2022-10-16T04:08:36.089Z,15.67
2022-10-16T04:08:48.889Z,15.67
2022-10-16T04:09:01.707Z,15.70
2022-10-16T04:09:14.873Z,15.68
2022-10-16T04:09:47.699Z,15.66
2022-10-16T04:10:00.589Z,15.63
2022-10-16T04:10:13.661Z,15.60
2022-10-16T04:10:28.503Z,15.59
2022-10-16T04:10:43.803Z,15.50
2022-10-16T04:10:56.640Z,15.52
2022-10-16T04:11:11.435Z,15.50
2022-10-16T04:11:28.903Z,15.54
2022-10-16T04:11:41.757Z,15.64
2022-10-16T04:11:55.056Z,15.65
2022-10-16T04:12:07.938Z,15.66
2022-10-16T04:12:22.947Z,15.69
2022-10-16T04:12:36.180Z,15.65
2022-10-16T04:12:48.968Z,15.59
2022-10-16T04:13:01.873Z,15.58
2022-10-16T04:13:15.688Z,15.61
2022-10-16T04:13:29.021Z,15.56
2022-10-16T04:13:42.660Z,15.56
2022-10-16T04:13:55.587Z,15.55
2022-10-16T04:14:08.544Z,15.58
2022-10-16T04:14:21.369Z,15.57
2022-10-16T04:14:34.241Z,15.61
2022-10-16T04:14:47.180Z,15.61
2022-10-16T04:15:00.332Z,15.64
2022-10-16T04:15:14.293Z,15.69
2022-10-16T04:15:27.134Z,15.71
2022-10-16T04:15:39.950Z,15.71
2022-10-16T04:15:54.837Z,15.74
2022-10-16T04:16:08.070Z,15.76
2022-10-16T04:16:21.229Z,15.78
2022-10-16T04:16:34.064Z,15.73
2022-10-16T04:16:46.917Z,15.74
2022-10-16T04:16:59.752Z,15.74
2022-10-16T04:17:12.617Z,15.76
2022-10-16T04:17:25.847Z,15.76
2022-10-16T04:17:38.740Z,15.75
2022-10-16T04:17:51.663Z,15.77
2022-10-16T04:18:05.117Z,15.79
2022-10-16T04:18:18.460Z,15.81
2022-10-16T04:18:31.565Z,15.81
2022-10-16T04:18:44.803Z,15.80
2022-10-16T04:18:57.674Z,15.83
2022-10-16T04:19:11.621Z,15.80
2022-10-16T04:20:17.013Z,15.77
2022-10-16T04:20:29.844Z,15.78
2022-10-16T04:21:06.402Z,15.78
2022-10-16T04:21:19.440Z,15.67
2022-10-16T04:21:32.327Z,15.68
2022-10-16T04:22:04.054Z,15.69
2022-10-16T04:22:16.919Z,15.67
2022-10-16T04:22:29.839Z,15.65
2022-10-16T04:22:42.839Z,15.64
2022-10-16T04:22:56.197Z,15.62
2022-10-16T04:23:09.023Z,15.63
2022-10-16T04:23:21.953Z,15.65
2022-10-16T04:23:35.211Z,15.64
2022-10-16T04:23:48.509Z,15.60
2022-10-16T04:24:01.304Z,15.62
2022-10-16T04:24:17.249Z,15.62
2022-10-16T04:24:30.425Z,15.60
2022-10-16T04:24:43.257Z,15.56
2022-10-16T04:24:56.182Z,15.56
2022-10-16T04:25:27.954Z,15.57
2022-10-16T04:25:40.835Z,15.62
2022-10-16T04:25:54.555Z,15.64
2022-10-16T04:26:07.412Z,15.67
2022-10-16T04:26:20.243Z,15.68
2022-10-16T04:26:33.075Z,15.69
2022-10-16T04:26:46.079Z,15.71
2022-10-16T04:26:58.865Z,15.68
2022-10-16T04:27:11.700Z,15.70
2022-10-16T04:27:24.714Z,15.69
2022-10-16T04:27:39.973Z,15.73
2022-10-16T04:27:55.205Z,15.75
2022-10-16T04:28:08.214Z,15.70
2022-10-16T04:28:41.266Z,15.72
2022-10-16T04:28:54.961Z,15.74
2022-10-16T04:29:08.113Z,15.67
2022-10-16T04:29:20.959Z,15.71
2022-10-16T04:29:53.691Z,15.70
2022-10-16T04:30:08.281Z,15.76
2022-10-16T04:30:21.723Z,15.72
2022-10-16T04:30:34.943Z,15.75
2022-10-16T04:30:48.247Z,15.76
2022-10-16T04:31:01.098Z,15.78
2022-10-16T04:31:13.935Z,15.80
2022-10-16T04:31:26.843Z,15.80
2022-10-16T04:58:38.859Z,15.59
2022-10-16T04:58:52.135Z,15.56
2022-10-16T04:59:05.313Z,15.51
2022-10-16T04:59:19.131Z,15.54
2022-10-16T04:59:52.667Z,15.53
2022-10-16T05:00:06.934Z,15.53
2022-10-16T05:00:20.417Z,15.53
2022-10-16T05:00:33.561Z,15.57
2022-10-16T05:00:47.954Z,15.58
2022-10-16T05:01:01.062Z,15.56
2022-10-16T05:01:14.507Z,15.53
2022-10-16T05:01:27.663Z,15.55
2022-10-16T05:11:54.205Z,15.36
2022-10-16T05:12:07.056Z,15.40
2022-10-16T05:12:19.859Z,15.44
2022-10-16T05:12:33.351Z,15.44
2022-10-16T05:12:47.342Z,15.41
2022-10-16T05:13:04.563Z,15.42
2022-10-16T05:13:18.731Z,15.43
2022-10-16T05:13:55.788Z,15.45
2022-10-16T05:14:27.675Z,15.42
2022-10-16T05:14:42.362Z,15.46
2022-10-16T05:14:59.802Z,15.48
2022-10-16T05:15:13.294Z,15.51
2022-10-16T05:15:26.391Z,15.50
2022-10-16T05:15:39.594Z,15.46
2022-10-16T05:15:52.833Z,15.49
2022-10-16T05:16:07.009Z,15.46
2022-10-16T05:16:20.299Z,15.41
2022-10-16T05:16:33.650Z,15.40
2022-10-16T05:16:49.130Z,15.39
2022-10-16T05:17:32.692Z,15.43
2022-10-16T05:17:47.844Z,15.49
2022-10-16T05:18:00.671Z,15.48
2022-10-16T05:18:17.905Z,15.51
2022-10-16T05:18:30.887Z,15.46
2022-10-16T05:18:43.973Z,15.48
2022-10-16T05:19:22.408Z,15.47
2022-10-16T05:19:31.224Z,15.45
2022-10-16T05:20:06.550Z,15.50
2022-10-16T05:20:19.506Z,15.45
2022-10-16T05:20:32.352Z,15.44
2022-10-16T05:20:45.417Z,15.42
2022-10-16T05:20:59.301Z,15.44
2022-10-16T05:21:12.309Z,15.48
2022-10-16T05:21:25.701Z,15.42
2022-10-16T05:21:38.545Z,15.45
2022-10-16T05:21:51.582Z,15.40
2022-10-16T05:22:04.858Z,15.43
2022-10-16T05:22:17.721Z,15.44
2022-10-16T05:22:30.844Z,15.42
2022-10-16T05:22:47.668Z,15.46
2022-10-16T05:23:00.666Z,15.41
2022-10-16T05:23:26.430Z,15.41
2022-10-16T05:23:39.830Z,15.42
2022-10-16T05:23:54.327Z,15.43
2022-10-16T05:24:27.267Z,15.42
2022-10-16T05:24:40.523Z,15.44
2022-10-16T05:24:53.324Z,15.45
2022-10-16T05:25:06.726Z,15.45
2022-10-16T05:25:20.215Z,15.47
2022-10-16T05:25:33.397Z,15.47
2022-10-16T05:25:56.384Z,15.40
2022-10-16T05:26:09.395Z,15.35
2022-10-16T05:26:25.118Z,15.34
2022-10-16T05:26:38.180Z,15.41
2022-10-16T05:26:51.208Z,15.40
2022-10-16T05:27:04.396Z,15.37
2022-10-16T05:27:20.322Z,15.36
2022-10-16T05:27:35.291Z,15.37
2022-10-16T05:27:50.364Z,15.36
2022-10-16T05:28:23.145Z,15.36
2022-10-16T05:28:36.300Z,15.38
2022-10-16T05:28:50.273Z,15.39
2022-10-16T05:29:03.771Z,15.43
2022-10-16T05:29:17.250Z,15.43
2022-10-16T05:29:30.726Z,15.47
2022-10-16T05:29:43.610Z,15.46
2022-10-16T05:29:56.595Z,15.48
2022-10-16T05:30:12.390Z,15.49
2022-10-16T05:30:25.502Z,15.53
2022-10-16T05:30:42.378Z,15.53
2022-10-16T05:42:46.861Z,15.30
2022-10-16T05:42:59.676Z,15.25
2022-10-16T05:43:13.516Z,15.11
2022-10-16T05:43:28.818Z,15.08
2022-10-16T05:43:41.760Z,15.13
2022-10-16T05:43:55.114Z,15.15
2022-10-16T05:44:11.367Z,15.18
2022-10-16T05:44:24.496Z,15.13
2022-10-16T05:44:37.723Z,15.08
2022-10-16T05:44:50.924Z,15.09
2022-10-16T05:45:04.999Z,15.02
2022-10-16T05:45:18.040Z,15.06
2022-10-16T05:45:31.417Z,15.13
2022-10-16T05:45:44.800Z,15.18
2022-10-16T05:45:58.362Z,15.22
2022-10-16T05:46:11.229Z,15.27
2022-10-16T05:46:24.322Z,15.28
2022-10-16T05:46:57.051Z,15.32
2022-10-16T05:47:30.393Z,15.28
2022-10-16T05:48:03.132Z,15.30
2022-10-16T05:48:16.150Z,15.36
2022-10-16T05:48:29.149Z,15.40
2022-10-16T05:48:42.946Z,15.36
2022-10-16T05:48:55.920Z,15.34
2022-10-16T05:49:08.732Z,15.37
2022-10-16T05:49:21.611Z,15.41
2022-10-16T05:49:37.857Z,15.44
2022-10-16T05:50:12.218Z,15.45
2022-10-16T05:50:25.053Z,15.34
2022-10-16T05:51:05.043Z,15.43
2022-10-16T05:51:37.783Z,15.38
2022-10-16T05:51:50.765Z,15.54
2022-10-16T06:11:31.480Z,15.73
2022-10-16T06:12:04.408Z,15.66
2022-10-16T06:12:18.268Z,15.71
2022-10-16T06:32:02.397Z,15.97
2022-10-16T06:32:15.552Z,16.00
2022-10-16T06:32:28.889Z,16.04
2022-10-16T06:33:04.800Z,16.03
2022-10-16T06:33:38.317Z,15.97
2022-10-16T06:33:52.245Z,16.03
2022-10-16T06:34:07.316Z,16.07
2022-10-16T06:34:20.293Z,16.14
2022-10-16T06:34:33.298Z,16.15
2022-10-16T06:34:46.511Z,16.07
2022-10-16T06:34:59.316Z,16.14
2022-10-16T06:35:12.213Z,16.13
2022-10-16T06:35:30.590Z,16.14
2022-10-16T06:35:43.442Z,16.13
2022-10-16T06:36:05.185Z,16.09
2022-10-16T06:36:36.671Z,16.09
2022-10-16T06:36:53.489Z,16.10
2022-10-16T06:37:06.545Z,16.19
2022-10-16T06:37:19.455Z,16.15
2022-10-16T06:37:32.346Z,16.20
2022-10-16T06:37:45.650Z,16.22
2022-10-16T06:37:59.099Z,16.18
2022-10-16T06:38:12.332Z,16.19
2022-10-16T06:38:25.372Z,16.23
2022-10-16T06:38:38.578Z,16.21
2022-10-16T06:38:51.628Z,16.16
2022-10-16T06:39:06.011Z,16.16
2022-10-16T06:39:19.012Z,16.18
2022-10-16T06:39:32.259Z,16.25
2022-10-16T06:39:47.122Z,16.24
2022-10-16T06:40:02.035Z,16.24
2022-10-16T06:40:18.744Z,16.22
2022-10-16T06:40:31.841Z,16.27
2022-10-16T06:40:44.975Z,16.26
2022-10-16T06:40:58.140Z,16.24
2022-10-16T06:41:16.437Z,16.24
2022-10-16T06:41:29.667Z,16.24
2022-10-16T06:41:42.612Z,16.29
2022-10-16T06:41:56.366Z,16.29
2022-10-16T06:42:09.733Z,16.34
2022-10-16T06:42:22.537Z,16.35
2022-10-16T06:42:35.555Z,16.39
2022-10-16T06:42:49.502Z,16.36
2022-10-16T06:43:02.508Z,16.35
2022-10-16T06:43:19.315Z,16.36
2022-10-16T06:43:38.423Z,16.38
2022-10-16T06:43:51.587Z,16.38
2022-10-16T06:44:07.703Z,16.27
2022-10-16T06:44:20.892Z,16.28
2022-10-16T06:44:53.054Z,16.31
2022-10-16T06:45:06.815Z,16.33
2022-10-16T06:45:21.664Z,16.26
2022-10-16T06:45:56.196Z,16.34
2022-10-16T06:46:10.512Z,16.41
2022-10-16T06:46:24.857Z,16.43
2022-10-16T06:46:57.774Z,16.37
2022-10-16T06:47:11.738Z,16.49
2022-10-16T06:47:24.888Z,16.52
2022-10-16T06:47:37.752Z,16.45
2022-10-16T06:47:51.111Z,16.49
2022-10-16T06:48:04.330Z,16.47
2022-10-16T06:48:37.841Z,16.44
2022-10-16T06:48:50.689Z,16.38
2022-10-16T06:49:03.697Z,16.39
2022-10-16T06:49:22.435Z,16.41
2022-10-16T06:49:35.817Z,16.46
2022-10-16T06:49:51.867Z,16.41
2022-10-16T06:50:10.298Z,16.40
2022-10-16T06:50:23.650Z,16.43
2022-10-16T06:50:36.798Z,16.39
2022-10-16T06:51:11.328Z,16.45
2022-10-16T06:51:25.007Z,16.50
2022-10-16T06:51:43.323Z,16.52
2022-10-16T06:53:16.996Z,16.36
2022-10-16T06:53:39.552Z,16.42
2022-10-16T06:54:04.694Z,16.38
2022-10-16T06:54:18.991Z,16.40
2022-10-16T06:54:36.458Z,16.45
2022-10-16T06:54:55.350Z,16.41
2022-10-16T06:55:08.851Z,16.47
2022-10-16T06:55:22.090Z,16.50
2022-10-16T06:55:40.047Z,16.48
2022-10-16T06:55:53.539Z,16.54
2022-10-16T06:56:17.285Z,16.56
2022-10-16T06:56:32.281Z,16.49
2022-10-16T06:56:45.924Z,16.46
2022-10-16T06:57:01.104Z,16.55
2022-10-16T06:57:13.918Z,16.46
2022-10-16T06:57:27.172Z,16.51
2022-10-16T06:57:40.244Z,16.45
2022-10-16T06:57:53.320Z,16.47
2022-10-16T06:58:06.561Z,16.41
2022-10-16T06:58:19.753Z,16.37
2022-10-16T06:58:33.446Z,16.36
2022-10-16T06:58:46.849Z,16.43
2022-10-16T06:59:00.490Z,16.48
2022-10-16T06:59:13.315Z,16.47
2022-10-16T06:59:47.036Z,16.54
2022-10-16T07:00:18.975Z,16.55
2022-10-16T07:00:31.841Z,16.53
2022-10-16T07:00:45.530Z,16.54
2022-10-16T07:00:58.383Z,16.60
2022-10-16T07:01:12.128Z,16.66
2022-10-16T07:01:30.287Z,16.63
2022-10-16T07:01:45.264Z,16.62
2022-10-16T07:02:01.730Z,16.68
2022-10-16T07:02:24.076Z,16.54
2022-10-16T07:02:40.333Z,16.54
2022-10-16T07:02:53.216Z,16.57
2022-10-16T07:03:06.243Z,16.55
2022-10-16T07:03:19.261Z,16.50
2022-10-16T07:03:32.357Z,16.53
2022-10-16T07:03:46.328Z,16.52
2022-10-16T07:03:59.447Z,16.58
2022-10-16T07:04:12.487Z,16.65
2022-10-16T07:04:25.324Z,16.61
2022-10-16T07:04:38.167Z,16.54
2022-10-16T07:04:51.194Z,16.51
2022-10-16T07:05:05.260Z,16.60
2022-10-16T07:05:18.972Z,16.60
2022-10-16T07:05:32.130Z,16.68
2022-10-16T07:05:46.936Z,16.70
2022-10-16T07:06:05.845Z,16.62
2022-10-16T07:06:19.985Z,16.54
2022-10-16T07:06:34.576Z,16.58
2022-10-16T07:06:47.722Z,16.58
2022-10-16T07:07:04.445Z,16.64
2022-10-16T07:07:19.993Z,16.65
2022-10-16T07:07:32.837Z,16.72
2022-10-16T07:07:45.705Z,16.63
2022-10-16T07:07:58.569Z,16.70
2022-10-16T07:08:20.337Z,16.67
2022-10-16T07:08:37.480Z,16.69
2022-10-16T07:08:54.280Z,16.72
2022-10-16T07:09:10.073Z,16.75
2022-10-16T07:09:23.260Z,16.80
2022-10-16T07:09:37.298Z,16.84
2022-10-16T07:09:50.186Z,16.70
2022-10-16T07:10:04.033Z,16.65
2022-10-16T07:10:17.084Z,16.63
2022-10-16T07:10:30.333Z,16.67
2022-10-16T07:10:43.331Z,16.60
2022-10-16T07:11:18.310Z,16.59
2022-10-16T07:32:54.329Z,16.99
2022-10-16T07:33:07.269Z,16.97
2022-10-16T07:33:20.721Z,16.95
2022-10-16T07:33:33.937Z,17.05
2022-10-16T07:33:48.899Z,17.01
2022-10-16T07:34:02.882Z,16.95
2022-10-16T07:34:17.050Z,17.03
2022-10-16T07:34:30.067Z,17.00
2022-10-16T07:35:03.433Z,16.95
2022-10-16T07:35:16.254Z,17.06
2022-10-16T07:35:29.292Z,17.03
2022-10-16T07:36:16.590Z,16.96
2022-10-16T07:36:51.518Z,16.93
2022-10-16T07:37:04.520Z,17.06
2022-10-16T07:37:17.435Z,16.93
2022-10-16T07:37:30.677Z,16.93
2022-10-16T07:38:03.509Z,17.02
2022-10-16T07:38:16.912Z,17.07
2022-10-16T07:38:51.044Z,17.07
2022-10-16T07:39:06.050Z,17.02
2022-10-16T07:39:19.112Z,17.10
2022-10-16T07:39:32.639Z,17.09
2022-10-16T07:39:46.314Z,17.08
2022-10-16T07:40:04.016Z,17.19
2022-10-16T07:40:17.307Z,17.12
2022-10-16T07:40:30.335Z,17.14
2022-10-16T07:40:43.363Z,17.16
2022-10-16T07:41:15.864Z,17.21
2022-10-16T07:41:29.964Z,17.14
2022-10-16T07:42:11.787Z,17.24
2022-10-16T07:43:11.516Z,17.20
2022-10-16T07:43:24.832Z,17.26
2022-10-16T07:43:38.043Z,17.33
2022-10-16T07:43:52.640Z,17.30
2022-10-16T07:44:05.574Z,17.28
2022-10-16T07:44:41.834Z,17.31
2022-10-16T07:44:55.007Z,17.26
2022-10-16T07:45:08.658Z,17.31
2022-10-16T07:45:22.558Z,17.28
2022-10-16T07:45:35.559Z,17.33
2022-10-16T07:45:50.114Z,17.39
2022-10-16T07:46:06.355Z,17.40
2022-10-16T07:46:20.333Z,17.39
2022-10-16T07:46:35.288Z,17.37
2022-10-16T07:46:48.439Z,17.39
2022-10-16T07:47:01.571Z,17.36
2022-10-16T07:47:14.392Z,17.32
2022-10-16T07:47:27.869Z,17.30
2022-10-16T07:47:40.979Z,17.34
2022-10-16T07:47:53.770Z,17.37
2022-10-16T07:48:06.990Z,17.35
2022-10-16T07:48:20.164Z,17.44
2022-10-16T07:48:34.184Z,17.50
2022-10-16T07:48:49.201Z,17.51
2022-10-16T07:49:02.424Z,17.50
2022-10-16T07:49:15.523Z,17.47
2022-10-16T07:49:28.479Z,17.50
2022-10-16T07:49:41.315Z,17.48
2022-10-16T07:49:54.612Z,17.43
2022-10-16T07:50:08.842Z,17.44
2022-10-16T07:50:21.703Z,17.38
2022-10-16T07:50:34.955Z,17.46
2022-10-16T07:50:48.044Z,17.41
2022-10-16T07:51:01.665Z,17.42
2022-10-16T07:51:18.418Z,17.43
2022-10-16T07:51:31.797Z,17.40
2022-10-16T07:51:44.843Z,17.45
2022-10-16T07:52:17.587Z,17.40